Historyczne dane pomiarowe

Dodano dane terminowe – wersja testowa.

Dane z okresu 1951-2019

Wersja bazy: 1.34 [2019-03-16, lista zmian], aktualizacja planowana na 2019-04-15

Dane meteo z obszaru Polski uzyskane na podstawie danych udostępnionych przez Instytut Meteorologii i Gospodarki Wodnej – Państwowy Instytut Badawczy.

 

Wybierz Datę:    

       

TemperaturaWilgotnośćWiatrCiśnienieOpadyŚniegCzas trwania zjawisk
 Stacja t tx tn tng RH VA  wxwx mslp ppp RRR   cm mm wxwxwxwxwxwxwx
1994-10-10 6.8 9.8 4.0 1.9 79.0- 8.0 2.7---- 0.0------------
1994-10-09 4.3 6.9 1.5 -0.8 79.5- 8.0 1.7---- 0.0------------
1994-10-08 7.1 10.7 5.1 4.2 77.3- 5.3 2.0---- 0.0------------
1994-10-07 3.9 8.4 -2.0 -2.8 78.0- 4.3 2.0---- 0.2------------
1994-10-06 3.8 9.8 0.0 -1.7 88.0- 4.3 1.3---- 0.0------------
1994-10-05 4.3 7.5 2.5 0.5 91.8- 7.0 3.0---- 2.6------------
1994-10-04 7.2 14.2 4.8 3.2 72.5- 4.0 3.0---- 0.0------------
1994-10-03 12.0 17.0 6.2 4.6 91.0- 7.7 3.7---- 6.5------------
1994-10-02 7.3 10.6 3.3 2.0 92.5- 7.7 1.0---- 0.3------------
1994-10-01 9.9 16.8 6.9 4.2 87.0- 6.7 1.7---- 0.0------------
1994-09-30 13.5 15.9 11.4 9.5 82.5- 7.7 1.0---- 0.0------------
1994-09-29 11.8 18.0 5.6 4.6 78.3- 7.0 4.3---- 0.0------------
1994-09-28 12.4 15.8 10.1 8.1 71.8- 4.3 3.7---- 0.0------------
1994-09-27 14.3 17.8 12.9 11.5 93.0- 6.3 2.3---- 0.0------------
1994-09-26 16.3 22.6 12.1 10.1 85.0- 6.3 0.7---- 0.0------------
1994-09-25 16.3 20.3 10.4 8.7 91.0- 7.7 1.7---- 0.0------------
1994-09-24 15.0 22.3 9.6 6.1 87.3- 1.3 1.0---- 0.0------------
1994-09-23 12.4 16.0 10.1 7.0 92.8- 8.0 1.0---- 0.0------------
1994-09-22 13.0 14.3 11.4 9.7 91.5- 7.7 2.3---- 0.0------------
1994-09-21 11.6 12.7 10.5 9.1 93.3- 8.0 2.3---- 2.6------------
1994-09-20 11.2 18.8 5.9 3.3 84.8- 7.7 3.0---- 0.4------------
1994-09-19 11.8 16.8 8.4 5.6 84.0- 6.3 0.0---- 0.0------------
1994-09-18 11.9 14.9 9.0 7.2 79.0- 6.7 3.0---- 0.0------------
1994-09-17 11.9 14.7 7.3 5.1 75.3- 5.7 3.0---- 0.0------------
1994-09-16 13.9 18.0 9.5 7.8 74.0- 7.0 7.3---- 0.0------------
1994-09-15 19.3 22.3 16.8 13.5 63.3- 5.7 5.0---- 1.8------------
1994-09-14 17.6 21.1 15.5 14.0 93.0- 8.0 1.7---- 0.2------------
1994-09-13 16.8 19.6 14.3 10.2 92.0- 7.3 0.3---- 2.3------------
1994-09-12 15.1 22.4 8.4 5.6 85.3- 7.0 2.7---- 0.0------------
1994-09-11 13.8 17.5 9.4 6.6 83.0- 6.0 2.7---- 1.2------------
1994-09-10 14.4 21.9 8.1 4.5 75.0- 4.0 3.7---- 2.8------------
1994-09-09 16.6 20.1 14.0 12.5 76.8- 5.7 3.7---- 0.0------------
1994-09-08 16.8 21.7 10.8 11.5 87.5- 5.7 3.0---- 0.3------------
1994-09-07 13.2 16.5 11.4 8.6 90.5- 8.0 3.3---- 0.0------------
1994-09-06 14.0 18.0 12.0 11.5 87.0- 4.3 2.7---- 3.0------------
1994-09-05 16.1 21.2 11.1 8.8 84.8- 7.7 1.7---- 10.6------------
1994-09-04 16.0 21.1 11.1 8.5 84.5- 1.3 2.0---- 0.0------------
1994-09-03 16.8 21.9 15.6 14.9 90.0- 7.7 2.3---- 0.1------------
1994-09-02 19.1 24.5 14.4 11.5 79.5- 7.7 2.3---- 12.2------------
1994-09-01 16.9 20.6 14.0 11.7 84.0- 7.7 2.7---- 0.0------------
1994-08-31 18.1 24.0 12.9 10.2 65.3- 3.7 2.0---- 0.0------------
1994-08-30 14.3 20.7 10.0 7.6 73.3- 7.3 0.3---- 0.0------------
1994-08-29 15.1 20.7 11.0 9.3 72.8- 4.0 3.7---- 0.0------------
1994-08-28 18.6 26.8 15.2 12.1 79.5- 4.7 2.7---- 1.5------------
1994-08-27 18.6 24.8 13.9 13.0 75.0- 7.3 0.7---- 0.0------------
1994-08-26 18.6 22.8 16.4 14.8 79.0- 7.7 2.3---- 0.0------------
1994-08-25 18.7 23.0 15.7 14.5 74.5- 6.7 3.7---- 0.0------------
1994-08-24 17.7 23.7 10.8 8.0 73.8- 5.3 3.7---- 5.2------------
1994-08-23 16.0 22.8 9.6 7.0 80.3- 2.0 0.3---- 0.0------------
1994-08-22 17.8 22.5 13.6 11.5 74.5- 1.0 1.0---- 0.0------------
1994-08-21 16.6 21.5 9.5 7.2 81.5- 6.0 1.0---- 0.0------------
1994-08-20 16.1 19.0 13.3 12.5 86.0- 5.7 3.3---- 5.3------------
1994-08-19 12.7 14.7 10.9 10.3 93.0- 8.0 3.7---- 30.0------------
1994-08-18 15.9 21.9 12.9 12.5 85.3- 7.7 3.7---- 12.5------------
1994-08-17 16.7 25.7 8.0 7.1 66.3- 2.0 3.0---- 3.9------------
1994-08-16 15.6 20.1 13.1 12.5 72.3- 5.0 2.0---- 0.0------------
1994-08-15 12.5 15.5 10.3 8.5 89.5- 8.0 5.7---- 0.3------------
1994-08-14 13.9 16.6 10.4 8.7 71.0- 5.3 5.3---- 3.2------------
1994-08-13 15.7 21.1 13.7 14.0 90.5- 7.7 6.3---- 5.6------------
1994-08-12 17.5 21.0 15.8 15.0 92.5- 7.3 1.7---- 0.0------------
624.9 ms

 

Źródłem pochodzenia danych jest Instytut Meteorologii i Gospodarki Wodnej – Państwowy Instytut Badawczy. Dane Instytutu Meteorologii i Gospodarki Wodnej – Państwowego Instytutu Badawczego zostały przetworzone.

Dane źródłowe można odnaleźć na stronie https://dane.imgw.pl